createdAt,value
2023-02-19T00:00:51.406Z,11.89
2023-02-19T00:01:51.442Z,11.88
2023-02-19T00:02:51.402Z,11.86
2023-02-19T00:05:51.420Z,11.76
2023-02-19T00:06:51.513Z,11.75
2023-02-19T00:09:51.466Z,11.76
2023-02-19T00:10:51.440Z,11.66
2023-02-19T00:11:51.442Z,11.61
2023-02-19T00:14:51.476Z,11.66
2023-02-19T00:15:51.499Z,11.67
2023-02-19T00:16:51.459Z,11.68
2023-02-19T00:17:51.449Z,11.70
2023-02-19T00:18:51.441Z,11.72
2023-02-19T00:19:51.541Z,11.73
2023-02-19T00:20:51.491Z,11.72
2023-02-19T00:21:51.509Z,11.74
2023-02-19T00:22:51.475Z,11.72
2023-02-19T00:23:51.490Z,11.75
2023-02-19T00:24:51.531Z,11.76
2023-02-19T00:25:51.462Z,11.79
2023-02-19T00:27:51.478Z,11.80
2023-02-19T00:28:51.522Z,11.81
2023-02-19T00:30:51.496Z,11.75
2023-02-19T00:31:51.688Z,11.72
2023-02-19T00:34:51.526Z,11.71
2023-02-19T00:35:51.525Z,11.70
2023-02-19T00:36:51.524Z,11.72
2023-02-19T00:38:51.507Z,11.71
2023-02-19T00:40:51.495Z,11.70
2023-02-19T00:41:51.509Z,11.68
2023-02-19T00:42:51.518Z,11.69
2023-02-19T00:43:51.528Z,11.68
2023-02-19T00:44:51.582Z,11.69
2023-02-19T00:45:51.518Z,11.67
2023-02-19T00:46:51.572Z,11.62
2023-02-19T00:48:51.562Z,11.63
2023-02-19T00:52:51.594Z,11.62
2023-02-19T00:53:51.580Z,11.61
2023-02-19T00:54:51.583Z,11.62
2023-02-19T00:55:51.575Z,11.61
2023-02-19T00:56:51.629Z,11.62
2023-02-19T00:57:51.634Z,11.63
2023-02-19T00:59:51.601Z,11.62
2023-02-19T01:00:51.556Z,11.60
2023-02-19T01:01:51.648Z,11.58
2023-02-19T01:03:51.614Z,11.55
2023-02-19T01:04:51.647Z,11.53
2023-02-19T01:05:51.595Z,11.52
2023-02-19T01:06:51.614Z,11.51
2023-02-19T01:07:51.638Z,11.52
2023-02-19T01:08:51.633Z,11.47
2023-02-19T01:09:51.601Z,11.40
2023-02-19T01:10:51.633Z,11.27
2023-02-19T01:11:51.620Z,11.28
2023-02-19T01:12:51.655Z,11.24
2023-02-19T01:13:51.642Z,11.25
2023-02-19T01:14:51.665Z,11.28
2023-02-19T01:15:51.616Z,11.27
2023-02-19T01:17:51.690Z,11.29
2023-02-19T01:18:51.612Z,11.27
2023-02-19T01:19:51.623Z,11.18
2023-02-19T01:20:51.636Z,11.19
2023-02-19T01:21:51.647Z,11.13
2023-02-19T01:22:51.681Z,11.10
2023-02-19T01:23:51.623Z,11.03
2023-02-19T01:24:51.625Z,10.96
2023-02-19T01:25:51.632Z,10.86
2023-02-19T01:26:51.646Z,10.85
2023-02-19T01:27:51.655Z,10.88
2023-02-19T01:28:51.658Z,10.87
2023-02-19T01:29:51.677Z,10.74
2023-02-19T01:30:51.652Z,10.72
2023-02-19T01:31:51.680Z,10.62
2023-02-19T01:32:51.707Z,10.60
2023-02-19T01:33:51.666Z,10.62
2023-02-19T01:34:51.661Z,10.68
2023-02-19T01:35:51.642Z,10.70
2023-02-19T01:36:51.677Z,10.72
2023-02-19T01:37:51.718Z,10.76
2023-02-19T01:38:51.692Z,10.82
2023-02-19T01:39:51.652Z,10.89
2023-02-19T01:40:51.657Z,10.92
2023-02-19T01:41:51.657Z,10.96
2023-02-19T01:42:51.690Z,11.00
2023-02-19T01:43:51.678Z,11.02
2023-02-19T01:44:51.668Z,11.03
2023-02-19T01:45:51.656Z,11.06
2023-02-19T01:46:51.734Z,11.09
2023-02-19T01:47:51.736Z,11.06
2023-02-19T01:48:51.670Z,11.07
2023-02-19T01:49:51.719Z,11.08
2023-02-19T01:50:51.730Z,11.11
2023-02-19T01:51:51.699Z,11.13
2023-02-19T01:52:51.734Z,11.16
2023-02-19T01:53:51.689Z,11.19
2023-02-19T01:54:51.720Z,11.23
2023-02-19T01:55:51.701Z,11.25
2023-02-19T01:56:51.739Z,11.28
2023-02-19T01:57:51.744Z,11.31
2023-02-19T01:58:51.729Z,11.34
2023-02-19T02:00:51.903Z,11.36
2023-02-19T02:02:51.706Z,11.34
2023-02-19T02:03:51.708Z,11.33
2023-02-19T02:05:51.815Z,11.34
2023-02-19T02:07:51.787Z,11.35
2023-02-19T02:11:51.771Z,11.33
2023-02-19T02:12:51.767Z,11.29
2023-02-19T02:13:51.780Z,11.20
2023-02-19T02:14:51.771Z,11.17
2023-02-19T02:15:51.897Z,11.18
2023-02-19T02:16:51.811Z,11.20
2023-02-19T02:17:51.787Z,11.23
2023-02-19T02:18:51.752Z,11.25
2023-02-19T02:19:51.755Z,11.27
2023-02-19T02:20:51.825Z,11.30
2023-02-19T02:22:51.802Z,11.31
2023-02-19T02:24:51.813Z,11.32
2023-02-19T02:25:51.798Z,11.30
2023-02-19T02:26:51.799Z,11.29
2023-02-19T02:27:51.819Z,11.27
2023-02-19T02:30:51.881Z,11.18
2023-02-19T02:31:51.890Z,11.11
2023-02-19T02:32:51.789Z,11.08
2023-02-19T02:33:51.833Z,11.09
2023-02-19T02:34:51.828Z,11.08
2023-02-19T02:35:51.835Z,11.07
2023-02-19T02:36:51.838Z,10.97
2023-02-19T02:37:51.796Z,10.94
2023-02-19T02:38:51.849Z,10.92
2023-02-19T02:39:51.839Z,10.91
2023-02-19T02:41:51.863Z,10.94
2023-02-19T02:42:51.812Z,10.99
2023-02-19T02:43:51.891Z,11.03
2023-02-19T02:44:51.833Z,11.07
2023-02-19T02:45:51.869Z,11.10
2023-02-19T02:46:51.851Z,11.13
2023-02-19T02:47:51.820Z,11.16
2023-02-19T02:48:51.812Z,11.15
2023-02-19T02:49:51.896Z,11.14
2023-02-19T02:50:51.876Z,11.15
2023-02-19T02:52:51.828Z,11.14
2023-02-19T02:54:51.882Z,11.15
2023-02-19T02:55:51.875Z,11.14
2023-02-19T02:56:51.879Z,11.15
2023-02-19T03:02:51.903Z,11.17
2023-02-19T03:03:51.896Z,11.16
2023-02-19T03:04:51.936Z,11.14
2023-02-19T03:05:51.931Z,11.12
2023-02-19T03:06:51.910Z,11.08
2023-02-19T03:07:51.924Z,11.06
2023-02-19T03:08:51.872Z,11.05
2023-02-19T03:09:51.912Z,11.07
2023-02-19T03:13:51.901Z,11.08
2023-02-19T03:14:51.886Z,11.05
2023-02-19T03:15:51.904Z,11.04
2023-02-19T03:16:51.931Z,11.01
2023-02-19T03:17:51.974Z,10.98
2023-02-19T03:18:51.919Z,10.99
2023-02-19T03:22:51.916Z,11.01
2023-02-19T03:23:51.961Z,11.02
2023-02-19T03:24:51.914Z,11.04
2023-02-19T03:25:51.925Z,11.03
2023-02-19T03:26:51.954Z,11.06
2023-02-19T03:28:51.958Z,11.07
2023-02-19T03:30:51.948Z,11.10
2023-02-19T03:31:52.045Z,11.11
2023-02-19T03:32:51.963Z,11.15
2023-02-19T03:33:51.928Z,11.16
2023-02-19T03:34:51.977Z,11.17
2023-02-19T03:35:51.986Z,11.19
2023-02-19T03:36:51.954Z,11.21
2023-02-19T03:37:51.982Z,11.22
2023-02-19T03:39:51.977Z,11.18
2023-02-19T03:40:51.943Z,11.15
2023-02-19T03:41:51.961Z,11.02
2023-02-19T03:42:53.744Z,10.98
2023-02-19T03:44:51.999Z,11.01
2023-02-19T03:46:51.981Z,10.95
2023-02-19T03:47:51.978Z,10.85
2023-02-19T03:48:51.988Z,10.80
2023-02-19T03:49:51.978Z,10.79
2023-02-19T03:50:52.016Z,10.81
2023-02-19T03:51:52.000Z,10.82
2023-02-19T03:52:52.023Z,10.87
2023-02-19T03:53:52.031Z,10.90
2023-02-19T03:54:52.015Z,10.95
2023-02-19T03:55:52.026Z,11.01
2023-02-19T03:56:52.006Z,11.05
2023-02-19T03:57:52.010Z,11.08
2023-02-19T03:58:52.008Z,11.11
2023-02-19T03:59:51.993Z,11.14
2023-02-19T04:00:52.044Z,11.19
2023-02-19T04:01:52.100Z,11.24
2023-02-19T04:02:52.042Z,11.30
2023-02-19T04:03:52.048Z,11.33
2023-02-19T04:04:52.113Z,11.34
2023-02-19T04:07:52.066Z,11.36
2023-02-19T04:08:52.242Z,11.37
2023-02-19T04:09:52.033Z,11.38
2023-02-19T04:10:52.106Z,11.33
2023-02-19T04:11:52.072Z,11.30
2023-02-19T04:12:52.035Z,11.23
2023-02-19T04:13:52.073Z,11.18
2023-02-19T04:14:52.167Z,11.07
2023-02-19T04:15:52.080Z,11.00
2023-02-19T04:16:52.118Z,10.97
2023-02-19T04:17:52.058Z,10.95
2023-02-19T04:18:52.147Z,10.96
2023-02-19T04:19:52.053Z,10.94
2023-02-19T04:20:52.084Z,10.92
2023-02-19T04:21:52.149Z,10.96
2023-02-19T04:23:52.092Z,11.00
2023-02-19T04:24:52.066Z,10.95
2023-02-19T04:25:52.115Z,10.89
2023-02-19T04:26:52.072Z,10.90
2023-02-19T04:27:52.108Z,10.91
2023-02-19T04:28:52.110Z,10.88
2023-02-19T04:30:52.157Z,10.86
2023-02-19T04:31:52.172Z,10.88
2023-02-19T04:32:52.126Z,10.90
2023-02-19T04:33:52.115Z,10.94
2023-02-19T04:34:54.164Z,10.96
2023-02-19T04:35:52.141Z,11.00
2023-02-19T04:36:52.133Z,11.01
2023-02-19T04:37:52.075Z,11.00
2023-02-19T04:39:52.089Z,10.98
2023-02-19T04:40:52.077Z,10.96
2023-02-19T04:41:52.172Z,10.97
2023-02-19T04:42:52.092Z,10.96
2023-02-19T04:43:52.099Z,10.95
2023-02-19T04:45:52.137Z,10.97
2023-02-19T04:46:52.133Z,10.96
2023-02-19T04:47:52.109Z,10.97
2023-02-19T04:48:52.148Z,10.95
2023-02-19T04:49:52.146Z,10.90
2023-02-19T04:50:52.151Z,10.89
2023-02-19T04:51:52.154Z,10.88
2023-02-19T04:52:52.171Z,10.86
2023-02-19T04:53:52.115Z,10.81
2023-02-19T04:54:52.131Z,10.71
2023-02-19T04:55:52.120Z,10.53
2023-02-19T04:57:52.174Z,10.58
2023-02-19T04:58:52.175Z,10.62
2023-02-19T04:59:52.135Z,10.58
2023-02-19T05:00:52.174Z,10.55
2023-02-19T05:01:52.223Z,10.50
2023-02-19T05:02:52.172Z,10.32
2023-02-19T05:03:52.194Z,10.23
2023-02-19T05:04:52.190Z,10.10
2023-02-19T05:05:52.176Z,9.98
2023-02-19T05:06:52.210Z,9.94
2023-02-19T05:07:52.199Z,9.96
2023-02-19T05:08:52.206Z,9.99
2023-02-19T05:09:52.255Z,9.85
2023-02-19T05:10:52.187Z,9.88
2023-02-19T05:11:52.168Z,9.95
2023-02-19T05:12:52.175Z,10.00
2023-02-19T05:14:52.242Z,9.98
2023-02-19T05:15:52.200Z,9.92
2023-02-19T05:16:52.212Z,9.96
2023-02-19T05:17:52.184Z,10.06
2023-02-19T05:18:52.231Z,10.16
2023-02-19T05:19:52.228Z,10.08
2023-02-19T05:20:52.239Z,10.11
2023-02-19T05:21:52.240Z,10.15
2023-02-19T05:22:52.220Z,10.19
2023-02-19T05:23:52.233Z,10.26
2023-02-19T05:24:52.242Z,10.24
2023-02-19T05:25:52.266Z,10.26
2023-02-19T05:26:52.199Z,10.34
2023-02-19T05:27:52.274Z,10.42
2023-02-19T05:29:52.258Z,10.41
2023-02-19T05:30:52.305Z,10.35
2023-02-19T05:31:52.305Z,10.29
2023-02-19T05:34:52.245Z,10.31
2023-02-19T05:35:52.221Z,10.36
2023-02-19T05:36:52.228Z,10.35
2023-02-19T05:37:52.277Z,10.41
2023-02-19T05:39:52.301Z,10.40
2023-02-19T05:40:52.272Z,10.42
2023-02-19T05:41:52.252Z,10.40
2023-02-19T05:42:52.251Z,10.43
2023-02-19T05:43:52.279Z,10.44
2023-02-19T05:44:52.254Z,10.50
2023-02-19T05:45:52.301Z,10.47
2023-02-19T05:46:52.259Z,10.50
2023-02-19T05:47:52.262Z,10.51
2023-02-19T05:48:52.256Z,10.48
2023-02-19T05:50:52.264Z,10.49
2023-02-19T05:51:52.294Z,10.50
2023-02-19T05:52:52.320Z,10.55
2023-02-19T05:53:52.308Z,10.58
2023-02-19T05:54:52.301Z,10.54
2023-02-19T05:55:52.315Z,10.52
2023-02-19T05:56:52.312Z,10.54
2023-02-19T05:57:52.276Z,10.55
2023-02-19T05:58:52.326Z,10.58
2023-02-19T05:59:52.273Z,10.60
2023-02-19T06:00:52.298Z,10.66
2023-02-19T06:01:52.294Z,10.67
2023-02-19T06:02:52.356Z,10.70
2023-02-19T06:03:52.730Z,10.71
2023-02-19T06:04:52.340Z,10.74
2023-02-19T06:05:52.353Z,10.78
2023-02-19T06:06:52.348Z,10.80
2023-02-19T06:07:52.318Z,10.78
2023-02-19T06:08:52.297Z,10.79
2023-02-19T06:10:52.323Z,10.78
2023-02-19T06:11:52.363Z,10.81
2023-02-19T06:12:52.315Z,10.79
2023-02-19T06:13:52.343Z,10.76
2023-02-19T06:14:52.312Z,10.75
2023-02-19T06:15:52.379Z,10.77
2023-02-19T06:16:52.324Z,10.79
2023-02-19T06:17:52.328Z,10.78
2023-02-19T06:18:52.328Z,10.81
2023-02-19T06:19:52.410Z,10.84
2023-02-19T06:20:52.375Z,10.86
2023-02-19T06:21:52.386Z,10.90
2023-02-19T06:23:52.374Z,10.89
2023-02-19T06:24:52.431Z,10.90
2023-02-19T06:25:52.407Z,10.94
2023-02-19T06:26:52.362Z,10.97
2023-02-19T06:27:52.355Z,10.99
2023-02-19T06:28:52.408Z,11.01
2023-02-19T06:29:52.374Z,11.00
2023-02-19T06:30:52.379Z,11.03
2023-02-19T06:31:52.514Z,11.01
2023-02-19T06:32:55.055Z,10.99
2023-02-19T06:33:52.372Z,11.00
2023-02-19T06:37:52.399Z,10.96
2023-02-19T06:38:52.422Z,10.95
2023-02-19T06:39:52.439Z,10.94
2023-02-19T06:41:52.433Z,10.96
2023-02-19T06:42:52.438Z,10.99
2023-02-19T06:43:52.443Z,11.02
2023-02-19T06:44:52.477Z,11.05
2023-02-19T06:45:52.435Z,11.08
2023-02-19T06:46:52.442Z,11.11
2023-02-19T06:47:52.440Z,11.14
2023-02-19T06:50:52.436Z,11.16
2023-02-19T06:51:52.475Z,11.13
2023-02-19T06:52:52.445Z,11.11
2023-02-19T06:53:52.439Z,11.10
2023-02-19T06:54:52.496Z,11.13
2023-02-19T06:55:52.429Z,11.16
2023-02-19T06:56:52.487Z,11.17
2023-02-19T06:57:52.452Z,11.18
2023-02-19T06:58:52.439Z,11.20
2023-02-19T06:59:52.549Z,11.22
2023-02-19T07:00:52.506Z,11.25
2023-02-19T07:01:52.450Z,11.28
2023-02-19T07:02:52.487Z,11.32
2023-02-19T07:03:52.572Z,11.34
2023-02-19T07:04:52.488Z,11.36
2023-02-19T07:05:52.443Z,11.37
2023-02-19T07:06:52.494Z,11.36
2023-02-19T07:07:52.496Z,11.38
2023-02-19T07:09:52.494Z,11.40
2023-02-19T07:12:52.479Z,11.41
2023-02-19T07:13:52.484Z,11.43
2023-02-19T07:14:52.501Z,11.44
2023-02-19T07:15:52.588Z,11.45
2023-02-19T07:16:52.532Z,11.46
2023-02-19T07:17:52.520Z,11.48
2023-02-19T07:18:52.480Z,11.45
2023-02-19T07:19:52.486Z,11.44
2023-02-19T07:20:52.553Z,11.42
2023-02-19T07:21:52.542Z,11.41
2023-02-19T07:22:52.490Z,11.40
2023-02-19T07:23:52.502Z,11.41
2023-02-19T07:24:52.545Z,11.43
2023-02-19T07:25:52.592Z,11.42
2023-02-19T07:26:52.551Z,11.44
2023-02-19T07:27:52.566Z,11.45
2023-02-19T07:28:52.546Z,11.46
2023-02-19T07:30:52.551Z,11.47
2023-02-19T07:31:52.638Z,11.37
2023-02-19T07:32:52.515Z,11.28
2023-02-19T07:33:52.573Z,11.24
2023-02-19T07:34:52.580Z,11.22
2023-02-19T07:35:52.561Z,11.27
2023-02-19T07:36:52.580Z,11.23
2023-02-19T07:37:52.554Z,11.21
2023-02-19T07:38:52.575Z,11.24
2023-02-19T07:39:52.541Z,11.29
2023-02-19T07:40:52.548Z,11.38
2023-02-19T07:41:52.556Z,11.43
2023-02-19T07:42:52.552Z,11.44
2023-02-19T07:44:52.554Z,11.40
2023-02-19T07:45:52.631Z,11.38
2023-02-19T07:46:52.608Z,11.37
2023-02-19T07:48:52.600Z,11.38
2023-02-19T07:49:52.568Z,11.37
2023-02-19T07:50:52.559Z,11.27
2023-02-19T07:52:52.595Z,11.31
2023-02-19T07:53:52.579Z,11.35
2023-02-19T07:54:52.621Z,11.39
2023-02-19T07:55:52.624Z,11.43
2023-02-19T07:57:52.586Z,11.45
2023-02-19T07:58:52.611Z,11.50
2023-02-19T07:59:52.664Z,11.54
2023-02-19T08:01:52.650Z,11.53
2023-02-19T08:02:52.645Z,11.55
2023-02-19T08:03:52.643Z,11.59
2023-02-19T08:04:52.672Z,11.60
2023-02-19T08:05:52.650Z,11.59
2023-02-19T08:06:52.646Z,11.58
2023-02-19T08:07:52.613Z,11.61
2023-02-19T08:08:52.656Z,11.63
2023-02-19T08:09:52.654Z,11.65
2023-02-19T08:10:52.663Z,11.66
2023-02-19T08:11:52.667Z,11.64
2023-02-19T08:13:52.633Z,11.66
2023-02-19T08:14:52.672Z,11.69
2023-02-19T08:15:52.664Z,11.64
2023-02-19T08:16:52.682Z,11.65
2023-02-19T08:17:52.695Z,11.70
2023-02-19T08:18:52.650Z,11.71
2023-02-19T08:19:52.648Z,11.76
2023-02-19T08:20:52.684Z,11.79
2023-02-19T08:21:52.662Z,11.80
2023-02-19T08:22:52.708Z,11.84
2023-02-19T08:23:52.656Z,11.88
2023-02-19T08:24:52.645Z,11.91
2023-02-19T08:25:52.665Z,11.96
2023-02-19T08:26:52.667Z,11.99
2023-02-19T08:28:52.676Z,12.01
2023-02-19T08:29:52.706Z,12.03
2023-02-19T08:30:52.688Z,12.04
2023-02-19T08:32:52.678Z,12.06
2023-02-19T08:33:52.682Z,12.09
2023-02-19T08:34:52.696Z,12.14
2023-02-19T08:35:52.722Z,12.17
2023-02-19T08:36:52.727Z,12.18
2023-02-19T08:37:52.675Z,12.20
2023-02-19T08:38:52.695Z,12.24
2023-02-19T08:39:52.735Z,12.13
2023-02-19T08:40:52.731Z,12.07
2023-02-19T08:41:52.753Z,12.02
2023-02-19T08:42:52.683Z,11.99
2023-02-19T08:43:52.720Z,11.90
2023-02-19T08:44:52.769Z,11.88
2023-02-19T08:45:52.765Z,11.96
2023-02-19T08:46:52.729Z,12.03
2023-02-19T08:47:52.723Z,12.10
2023-02-19T08:48:52.719Z,12.22
2023-02-19T08:49:52.756Z,12.33
2023-02-19T08:50:52.745Z,12.39
2023-02-19T08:51:52.726Z,12.54
2023-02-19T08:53:52.748Z,12.47
2023-02-19T08:54:52.761Z,12.55
2023-02-19T08:55:52.808Z,12.56
2023-02-19T08:56:52.725Z,12.59
2023-02-19T08:57:52.739Z,12.55
2023-02-19T08:58:52.750Z,12.56
2023-02-19T08:59:52.736Z,12.53
2023-02-19T09:00:52.806Z,12.55
2023-02-19T09:01:52.772Z,12.58
2023-02-19T09:02:52.751Z,12.60
2023-02-19T09:03:52.886Z,12.51
2023-02-19T09:04:52.749Z,12.48
2023-02-19T09:05:52.753Z,12.47
2023-02-19T09:06:52.760Z,12.49
2023-02-19T09:07:52.769Z,12.55
2023-02-19T09:08:52.813Z,12.58
2023-02-19T09:09:52.767Z,12.59
2023-02-19T09:10:52.926Z,12.58
2023-02-19T09:11:52.761Z,12.54
2023-02-19T09:12:52.815Z,12.55
2023-02-19T09:13:52.800Z,12.56
2023-02-19T09:14:52.823Z,12.60
2023-02-19T09:15:52.928Z,12.65
2023-02-19T09:16:52.826Z,12.67
2023-02-19T09:17:52.807Z,12.65
2023-02-19T09:18:52.869Z,12.66
2023-02-19T09:19:52.818Z,12.65
2023-02-19T09:20:52.783Z,12.58
2023-02-19T09:21:52.794Z,12.57
2023-02-19T09:23:52.802Z,12.61
2023-02-19T09:24:52.804Z,12.64
2023-02-19T09:25:52.808Z,12.70
2023-02-19T09:26:52.894Z,12.77
2023-02-19T09:27:52.818Z,12.81
2023-02-19T09:28:52.814Z,12.84
2023-02-19T09:29:52.996Z,12.89
2023-02-19T09:31:52.877Z,12.88
2023-02-19T09:32:52.831Z,12.87
2023-02-19T09:33:52.827Z,12.89
2023-02-19T09:34:52.898Z,12.93
2023-02-19T09:35:52.872Z,12.98
2023-02-19T09:36:52.832Z,13.03
2023-02-19T09:37:52.838Z,13.04
2023-02-19T09:38:52.833Z,13.07
2023-02-19T09:39:52.880Z,13.09
2023-02-19T09:43:52.867Z,13.11
2023-02-19T09:44:52.889Z,13.13
2023-02-19T09:45:52.924Z,13.18
2023-02-19T09:46:52.911Z,13.20
2023-02-19T09:47:52.910Z,13.24
2023-02-19T09:48:52.867Z,13.27
2023-02-19T09:49:52.908Z,13.32
2023-02-19T09:50:52.907Z,13.37
2023-02-19T09:51:52.880Z,13.41
2023-02-19T09:52:52.878Z,13.46
2023-02-19T09:53:52.919Z,14.20
2023-02-19T09:55:52.914Z,14.22
2023-02-19T09:56:52.910Z,14.28
2023-02-19T09:57:52.956Z,14.36
2023-02-19T09:58:52.929Z,14.46
2023-02-19T09:59:52.911Z,14.55
2023-02-19T10:00:52.889Z,14.60
2023-02-19T10:01:52.938Z,14.64
2023-02-19T10:02:52.960Z,14.66
2023-02-19T10:03:52.895Z,14.68
2023-02-19T10:04:53.021Z,14.70
2023-02-19T10:05:52.920Z,14.72
2023-02-19T10:07:53.014Z,14.69
2023-02-19T10:08:52.910Z,14.64
2023-02-19T10:09:52.923Z,14.59
2023-02-19T10:10:52.925Z,14.52
2023-02-19T10:11:52.925Z,14.40
2023-02-19T10:12:52.987Z,14.34
2023-02-19T10:13:52.932Z,14.32
2023-02-19T10:16:52.945Z,14.27
2023-02-19T10:17:53.007Z,14.19
2023-02-19T10:18:52.980Z,14.14
2023-02-19T10:20:52.959Z,14.15
2023-02-19T10:22:52.987Z,14.17
2023-02-19T10:23:53.037Z,14.13
2023-02-19T10:24:52.989Z,14.05
2023-02-19T10:25:52.971Z,13.81
2023-02-19T10:26:52.960Z,13.69
2023-02-19T10:27:53.031Z,13.67
2023-02-19T10:28:52.961Z,13.60
2023-02-19T10:30:53.107Z,13.65
2023-02-19T10:31:53.026Z,13.72
2023-02-19T10:32:53.178Z,13.76
2023-02-19T10:33:53.005Z,13.78
2023-02-19T10:34:52.984Z,13.77
2023-02-19T10:35:52.992Z,13.76
2023-02-19T10:36:52.978Z,13.81
2023-02-19T10:37:53.020Z,13.87
2023-02-19T10:38:52.985Z,13.90
2023-02-19T10:39:53.048Z,13.94
2023-02-19T10:40:53.067Z,14.04
2023-02-19T10:41:53.009Z,14.19
2023-02-19T10:42:53.054Z,14.30
2023-02-19T10:43:53.035Z,14.28
2023-02-19T10:44:53.011Z,14.34
2023-02-19T10:45:53.045Z,14.45
2023-02-19T10:46:53.061Z,14.53
2023-02-19T10:47:53.061Z,14.64
2023-02-19T10:48:53.017Z,14.73
2023-02-19T10:49:53.045Z,14.81
2023-02-19T10:50:53.024Z,14.87
2023-02-19T10:51:53.022Z,14.86
2023-02-19T10:52:53.030Z,14.76
2023-02-19T10:53:53.091Z,14.61
2023-02-19T10:54:53.029Z,14.58
2023-02-19T10:55:53.042Z,14.52
2023-02-19T10:56:53.042Z,14.59
2023-02-19T10:57:53.052Z,14.63
2023-02-19T10:58:53.104Z,14.76
2023-02-19T10:59:53.086Z,14.98
2023-02-19T11:00:53.085Z,15.22
2023-02-19T11:01:53.131Z,15.44
2023-02-19T11:02:53.078Z,15.54
2023-02-19T11:03:53.117Z,15.55
2023-02-19T11:04:53.096Z,15.45
2023-02-19T11:05:53.085Z,15.38
2023-02-19T11:06:53.113Z,15.30
2023-02-19T11:07:53.125Z,15.19
2023-02-19T11:08:53.096Z,15.11
2023-02-19T11:09:53.109Z,15.05
2023-02-19T11:10:53.103Z,14.92
2023-02-19T11:11:53.153Z,14.80
2023-02-19T11:12:53.099Z,14.75
2023-02-19T11:13:53.127Z,14.68
2023-02-19T11:14:53.108Z,14.54
2023-02-19T11:15:53.138Z,14.46
2023-02-19T11:16:53.150Z,14.29
2023-02-19T11:17:53.125Z,14.15
2023-02-19T11:18:54.827Z,13.93
2023-02-19T11:19:53.085Z,13.99
2023-02-19T11:20:53.120Z,14.10
2023-02-19T11:21:53.132Z,14.23
2023-02-19T11:22:53.123Z,14.39
2023-02-19T11:23:53.148Z,14.43
2023-02-19T11:24:56.707Z,14.54
2023-02-19T11:25:53.108Z,14.58
2023-02-19T11:26:53.116Z,14.60
2023-02-19T11:27:53.124Z,14.55
2023-02-19T11:28:53.108Z,14.65
2023-02-19T11:29:53.121Z,14.77
2023-02-19T11:30:53.162Z,14.90
2023-02-19T11:31:53.229Z,15.00
2023-02-19T11:32:53.158Z,15.08
2023-02-19T11:33:53.194Z,15.11
2023-02-19T11:34:53.232Z,15.12
2023-02-19T11:35:53.166Z,15.06
2023-02-19T11:37:53.206Z,14.97
2023-02-19T11:38:53.175Z,14.75
2023-02-19T11:39:53.262Z,14.67
2023-02-19T11:40:53.149Z,14.57
2023-02-19T11:41:53.152Z,14.53
2023-02-19T11:42:53.194Z,14.48
2023-02-19T11:43:53.177Z,14.47
2023-02-19T11:44:53.229Z,14.55
2023-02-19T11:45:53.185Z,14.66
2023-02-19T11:46:53.189Z,14.78
2023-02-19T11:47:53.180Z,14.88
2023-02-19T11:48:53.202Z,14.95
2023-02-19T11:49:53.255Z,14.97
2023-02-19T11:50:53.208Z,14.94
2023-02-19T11:51:53.223Z,14.91
2023-02-19T11:52:53.253Z,14.80
2023-02-19T11:53:53.217Z,14.57
2023-02-19T11:54:53.205Z,14.52
2023-02-19T11:55:53.186Z,14.50
2023-02-19T11:56:53.190Z,14.48
2023-02-19T11:57:53.221Z,14.42
2023-02-19T11:59:53.197Z,14.41
2023-02-19T12:00:53.243Z,14.30
2023-02-19T12:01:53.292Z,14.00
2023-02-19T12:02:53.284Z,13.92
2023-02-19T12:03:53.201Z,13.91
2023-02-19T12:04:53.292Z,13.87
2023-02-19T12:05:53.239Z,13.91
2023-02-19T12:06:53.208Z,13.99
2023-02-19T12:07:53.246Z,14.11
2023-02-19T12:08:53.214Z,14.23
2023-02-19T12:09:53.251Z,14.34
2023-02-19T12:10:53.257Z,14.36
2023-02-19T12:11:53.321Z,14.34
2023-02-19T12:12:53.299Z,14.33
2023-02-19T12:13:53.252Z,14.32
2023-02-19T12:15:53.253Z,14.25
2023-02-19T12:16:53.233Z,14.23
2023-02-19T12:17:53.280Z,14.21
2023-02-19T12:18:53.265Z,14.19
2023-02-19T12:19:53.284Z,14.20
2023-02-19T12:20:53.323Z,14.21
2023-02-19T12:21:53.305Z,14.20
2023-02-19T12:22:53.289Z,14.21
2023-02-19T12:23:53.294Z,14.23
2023-02-19T12:24:53.294Z,14.22
2023-02-19T12:25:53.341Z,14.23
2023-02-19T12:27:53.291Z,14.22
2023-02-19T12:28:53.314Z,14.20
2023-02-19T12:29:53.294Z,14.18
2023-02-19T12:30:53.368Z,14.17
2023-02-19T12:31:53.373Z,14.14
2023-02-19T12:32:53.329Z,14.11
2023-02-19T12:33:53.333Z,14.10
2023-02-19T12:34:53.322Z,14.09
2023-02-19T12:35:53.326Z,14.10
2023-02-19T12:36:53.327Z,14.12
2023-02-19T12:37:53.287Z,14.10
2023-02-19T12:38:53.345Z,14.06
2023-02-19T12:40:53.291Z,13.96
2023-02-19T12:41:53.301Z,13.79
2023-02-19T12:42:53.305Z,13.72
2023-02-19T12:43:53.347Z,13.73
2023-02-19T12:44:53.337Z,13.75
2023-02-19T12:45:53.368Z,13.81
2023-02-19T12:46:53.299Z,13.89
2023-02-19T12:47:53.326Z,13.78
2023-02-19T12:48:53.466Z,13.75
2023-02-19T12:51:53.354Z,13.70
2023-02-19T12:52:53.326Z,13.63
2023-02-19T12:53:53.381Z,13.59
2023-02-19T12:54:55.681Z,13.60
2023-02-19T12:55:53.346Z,13.63
2023-02-19T12:56:53.364Z,13.67
2023-02-19T12:57:53.349Z,13.69
2023-02-19T12:58:53.385Z,13.70
2023-02-19T12:59:53.376Z,13.69
2023-02-19T13:00:53.370Z,13.72
2023-02-19T13:01:53.379Z,13.75
2023-02-19T13:02:53.388Z,13.76
2023-02-19T13:03:53.426Z,13.77
2023-02-19T13:05:53.398Z,13.75
2023-02-19T13:06:53.361Z,13.74
2023-02-19T13:09:05.853Z,13.67
2023-02-19T13:09:53.380Z,13.57
2023-02-19T13:10:53.407Z,13.50
2023-02-19T13:11:53.452Z,13.49
2023-02-19T13:13:53.385Z,13.33
2023-02-19T13:14:53.430Z,13.28
2023-02-19T13:15:53.423Z,13.17
2023-02-19T13:16:53.531Z,13.08
2023-02-19T13:17:53.394Z,13.10
2023-02-19T13:18:53.454Z,13.16
2023-02-19T13:19:53.418Z,13.14
2023-02-19T13:20:53.405Z,13.10
2023-02-19T13:21:53.439Z,12.92
2023-02-19T13:22:53.445Z,12.89
2023-02-19T13:23:53.415Z,12.90
2023-02-19T13:24:53.475Z,12.91
2023-02-19T13:25:55.191Z,12.92
2023-02-19T13:26:53.461Z,12.94
2023-02-19T13:27:53.455Z,12.92
2023-02-19T13:28:53.454Z,12.95
2023-02-19T13:29:53.568Z,12.99
2023-02-19T13:30:53.524Z,13.01
2023-02-19T13:32:53.471Z,13.08
2023-02-19T13:33:53.451Z,13.12
2023-02-19T13:34:53.437Z,13.10
2023-02-19T13:35:53.443Z,13.08
2023-02-19T13:36:53.482Z,13.10
2023-02-19T13:37:53.507Z,13.14
2023-02-19T13:38:53.474Z,13.12
2023-02-19T13:39:53.507Z,13.14
2023-02-19T13:40:53.457Z,13.19
2023-02-19T13:41:53.469Z,13.24
2023-02-19T13:42:53.535Z,13.28
2023-02-19T13:43:53.492Z,13.16
2023-02-19T13:44:57.149Z,13.03
2023-02-19T13:46:53.470Z,12.99
2023-02-19T13:47:53.507Z,13.05
2023-02-19T13:48:53.459Z,13.12
2023-02-19T13:49:53.507Z,13.20
2023-02-19T13:50:53.470Z,13.26
2023-02-19T13:51:53.515Z,13.30
2023-02-19T13:52:53.541Z,13.32
2023-02-19T13:53:53.482Z,13.33
2023-02-19T13:54:53.520Z,13.34
2023-02-19T13:55:53.500Z,13.35
2023-02-19T13:56:53.487Z,13.29
2023-02-19T13:57:53.552Z,13.25
2023-02-19T13:58:53.526Z,13.23
2023-02-19T13:59:53.513Z,13.26
2023-02-19T14:00:53.519Z,13.30
2023-02-19T14:01:53.573Z,13.36
2023-02-19T14:02:53.573Z,13.40
2023-02-19T14:03:53.539Z,13.41
2023-02-19T14:04:53.561Z,13.44
2023-02-19T14:05:53.544Z,13.46
2023-02-19T14:06:53.551Z,13.45
2023-02-19T14:08:53.560Z,13.43
2023-02-19T14:09:53.554Z,13.42
2023-02-19T14:10:53.560Z,13.39
2023-02-19T14:11:53.560Z,13.35
2023-02-19T14:12:53.802Z,13.30
2023-02-19T14:13:53.556Z,13.35
2023-02-19T14:14:53.585Z,13.42
2023-02-19T14:15:53.616Z,13.45
2023-02-19T14:16:53.561Z,13.42
2023-02-19T14:17:53.572Z,13.38
2023-02-19T14:18:53.559Z,13.28
2023-02-19T14:19:53.572Z,13.19
2023-02-19T14:20:53.574Z,13.23
2023-02-19T14:21:53.579Z,13.26
2023-02-19T14:22:53.544Z,13.31
2023-02-19T14:23:53.601Z,13.27
2023-02-19T14:24:53.595Z,13.26
2023-02-19T14:25:53.587Z,13.34
2023-02-19T14:26:53.560Z,13.40
2023-02-19T14:28:53.606Z,13.48
2023-02-19T14:29:53.608Z,13.54
2023-02-19T14:31:53.668Z,13.56
2023-02-19T14:33:02.741Z,13.61
2023-02-19T14:33:53.612Z,13.62
2023-02-19T14:34:53.573Z,13.61
2023-02-19T14:35:53.578Z,13.62
2023-02-19T14:36:53.631Z,13.59
2023-02-19T14:37:53.590Z,13.54
2023-02-19T14:38:53.652Z,13.40
2023-02-19T14:39:53.594Z,13.35
2023-02-19T14:40:53.629Z,13.36
2023-02-19T14:41:53.617Z,13.41
2023-02-19T14:42:53.612Z,13.45
2023-02-19T14:43:53.660Z,13.49